Time;durP1;ratioP1;P1;durP2;ratioP2;P2;SDS_P1;SDS_P2;PMS_P1;PMS_P2;Temp;Humidity;BMP_temperature;BMP_pressure;BME280_temperature;BME280_humidity;BME280_pressure;Samples;Min_cycle;Max_cycle;Signal;HPM_P1;HPM_P2
2021/12/01 04:33:36;;;;;;;0.70;0.70;;;;;;;-0.81;56.30;92059.19;6267204;22;20042;-78
2021/12/01 04:36:03;;;;;;;1.10;0.98;;;;;;;-0.82;56.82;92059.41;6220461;23;20031;-80
2021/12/01 04:38:29;;;;;;;1.73;1.00;;;;;;;-0.81;55.92;92054.06;6245802;23;20012;-81
2021/12/01 04:40:54;;;;;;;2.28;1.38;;;;;;;-0.80;55.20;92052.28;6270570;22;20016;-81
2021/12/01 04:43:20;;;;;;;2.03;1.30;;;;;;;-0.80;55.73;92049.69;6219802;23;20016;-81
2021/12/01 04:45:48;;;;;;;1.13;0.98;;;;;;;-0.81;55.31;92054.06;6245414;23;20079;-79
2021/12/01 04:48:14;;;;;;;0.82;0.82;;;;;;;-0.81;55.40;92058.41;6269147;22;20012;-81
2021/12/01 04:50:39;;;;;;;1.35;0.93;;;;;;;-0.81;54.44;92055.84;6246856;23;20033;-80
2021/12/01 04:53:05;;;;;;;1.23;1.00;;;;;;;-0.81;55.04;92059.19;6245629;22;20020;-81
2021/12/01 04:55:31;;;;;;;4.70;1.30;;;;;;;-0.78;54.62;92058.75;6247113;23;20143;-82
2021/12/01 04:57:57;;;;;;;1.92;1.00;;;;;;;-0.77;54.80;92057.72;6220298;23;20024;-80
2021/12/01 05:00:28;;;;;;;4.72;1.40;;;;;;;-0.78;54.55;92051.03;6246311;23;20000;-80
2021/12/01 05:02:54;;;;;;;1.92;1.10;;;;;;;-0.78;55.26;92056.16;6221751;23;20512;-79
2021/12/01 05:05:20;;;;;;;2.40;1.30;;;;;;;-0.74;55.74;92056.50;6246539;23;20053;-80
2021/12/01 05:07:46;;;;;;;1.05;0.95;;;;;;;-0.73;55.34;92056.25;6248844;23;20060;-81
2021/12/01 05:10:12;;;;;;;2.00;1.20;;;;;;;-0.74;55.07;92053.94;6221133;23;20004;-81
2021/12/01 05:12:38;;;;;;;2.63;1.02;;;;;;;-0.74;55.10;92049.56;6246930;23;20023;-81
2021/12/01 05:15:06;;;;;;;1.42;0.93;;;;;;;-0.74;54.62;92049.56;6244918;23;19999;-81
2021/12/01 05:17:32;;;;;;;2.80;1.58;;;;;;;-0.75;55.18;92053.13;6219516;23;20366;-81
2021/12/01 05:19:57;;;;;;;1.73;1.02;;;;;;;-0.76;55.53;92054.16;6247913;23;20004;-80
2021/12/01 05:22:23;;;;;;;1.92;1.10;;;;;;;-0.76;56.18;92054.16;6245497;23;20020;-81
2021/12/01 05:24:48;;;;;;;1.23;0.90;;;;;;;-0.75;56.35;92053.13;6247361;23;20007;-81
2021/12/01 05:27:14;;;;;;;1.38;1.05;;;;;;;-0.72;55.88;92057.84;6247050;23;20016;-81
2021/12/01 05:29:40;;;;;;;2.15;1.20;;;;;;;-0.73;56.02;92058.84;6246507;23;20027;-79
2021/12/01 05:32:06;;;;;;;1.83;1.10;;;;;;;-0.73;56.25;92056.25;6246319;23;20043;-80
2021/12/01 05:34:32;;;;;;;3.63;1.10;;;;;;;-0.73;56.70;92055.47;6245159;23;20016;-81
2021/12/01 05:37:00;;;;;;;1.38;1.00;;;;;;;-0.73;56.75;92050.34;6246683;23;20332;-81
2021/12/01 05:39:29;;;;;;;0.75;0.75;;;;;;;-0.74;56.95;92052.16;6246141;23;20087;-81
2021/12/01 05:41:56;;;;;;;1.30;0.90;;;;;;;-0.73;56.61;92052.91;6247665;23;20020;-80
2021/12/01 05:44:22;;;;;;;1.58;0.98;;;;;;;-0.76;56.86;92056.72;6246774;23;20003;-80
2021/12/01 05:46:48;;;;;;;0.93;0.85;;;;;;;-0.78;57.55;92063.88;6270838;22;20455;-81
2021/12/01 05:49:13;;;;;;;1.50;1.25;;;;;;;-0.79;57.02;92057.16;6220172;23;20000;-79
2021/12/01 05:51:39;;;;;;;1.70;1.13;;;;;;;-0.79;57.21;92067.44;6245931;23;20058;-81
2021/12/01 05:54:07;;;;;;;1.40;1.00;;;;;;;-0.77;56.38;92068.00;6246864;23;20004;-79
2021/12/01 05:56:32;;;;;;;1.60;1.10;;;;;;;-0.74;56.80;92069.34;6245086;23;20019;-80
2021/12/01 05:58:58;;;;;;;2.58;1.45;;;;;;;-0.75;56.68;92071.13;6250023;23;20008;-81
2021/12/01 06:01:24;;;;;;;1.95;1.05;;;;;;;-0.75;57.88;92076.28;6248126;23;20043;-80
2021/12/01 06:03:50;;;;;;;0.75;0.75;;;;;;;-0.76;58.09;92066.22;6241715;23;20000;-78
2021/12/01 06:06:16;;;;;;;2.42;1.10;;;;;;;-0.76;58.79;92066.22;6240325;23;20012;-77
2021/12/01 06:08:42;;;;;;;1.30;1.10;;;;;;;-0.75;58.50;92063.41;6242967;23;20030;-77
2021/12/01 06:11:08;;;;;;;2.13;1.10;;;;;;;-0.73;59.02;92070.91;6240842;23;20016;-79
2021/12/01 06:13:33;;;;;;;2.88;1.25;;;;;;;-0.71;58.69;92067.09;6241403;23;20058;-79
2021/12/01 06:15:59;;;;;;;1.88;1.33;;;;;;;-0.68;59.13;92064.06;6265136;22;20011;-77
2021/12/01 06:18:25;;;;;;;3.45;1.45;;;;;;;-0.66;59.11;92069.00;6242872;23;20008;-77
2021/12/01 06:20:50;;;;;;;3.58;1.20;;;;;;;-0.64;59.32;92066.97;6241220;23;20016;-77
2021/12/01 06:23:16;;;;;;;2.67;1.55;;;;;;;-0.59;58.49;92071.44;6215790;23;20012;-77
2021/12/01 06:25:43;;;;;;;2.20;1.10;;;;;;;-0.60;58.98;92062.94;6242124;23;20253;-79
2021/12/01 06:28:08;;;;;;;1.90;1.27;;;;;;;-0.59;58.85;92066.28;6242160;23;20015;-77
2021/12/01 06:30:37;;;;;;;1.52;1.05;;;;;;;-0.57;60.03;92066.84;6242128;23;20008;-78
2021/12/01 06:33:03;;;;;;;6.82;1.35;;;;;;;-0.57;60.31;92069.41;6243148;23;20483;-80
2021/12/01 06:35:29;;;;;;;2.38;1.48;;;;;;;-0.57;60.63;92061.69;6243063;23;20042;-78
2021/12/01 06:37:55;;;;;;;4.78;1.30;;;;;;;-0.58;60.68;92062.72;6242967;23;20630;-79
2021/12/01 06:40:23;;;;;;;4.10;1.30;;;;;;;-0.60;60.45;92059.59;6242486;23;20012;-79
2021/12/01 06:42:49;;;;;;;3.00;1.60;;;;;;;-0.59;60.27;92063.72;6244179;23;20423;-79
2021/12/01 06:45:16;;;;;;;2.05;1.30;;;;;;;-0.58;60.75;92060.16;6246037;23;20019;-78
2021/12/01 06:47:43;;;;;;;5.95;1.50;;;;;;;-0.60;60.78;92070.66;6246119;23;19996;-79
2021/12/01 06:50:10;;;;;;;2.38;1.25;;;;;;;-0.57;60.33;92064.28;6246203;23;20015;-78
2021/12/01 06:52:38;;;;;;;1.75;1.15;;;;;;;-0.57;59.62;92072.00;6218234;23;20431;-79
2021/12/01 06:55:05;;;;;;;2.92;1.50;;;;;;;-0.56;60.35;92076.09;6246679;23;20043;-79
2021/12/01 06:57:31;;;;;;;4.25;2.13;;;;;;;-0.54;60.38;92089.53;6219175;23;20004;-78
2021/12/01 06:59:57;;;;;;;5.35;2.10;;;;;;;-0.49;60.33;92084.50;6244606;23;20514;-79
2021/12/01 07:02:23;;;;;;;7.07;2.80;;;;;;;-0.46;59.86;92079.66;6244113;23;20058;-79
2021/12/01 07:04:48;;;;;;;5.82;2.90;;;;;;;-0.44;59.91;92087.94;6269226;22;20344;-79
2021/12/01 07:07:14;;;;;;;5.60;2.20;;;;;;;-0.41;60.22;92091.84;6245388;23;20075;-77
2021/12/01 07:09:44;;;;;;;2.70;1.70;;;;;;;-0.37;61.15;92092.16;6244856;23;20008;-78
2021/12/01 07:12:10;;;;;;;2.72;1.52;;;;;;;0.90;59.94;92093.50;6247376;23;20015;-78
2021/12/01 07:14:36;;;;;;;3.08;1.83;;;;;;;3.46;54.56;92080.38;6243017;23;20352;-77
2021/12/01 07:17:03;;;;;;;3.72;2.08;;;;;;;5.70;49.17;92082.56;6242186;23;20043;-77
2021/12/01 07:19:28;;;;;;;3.45;1.77;;;;;;;7.52;44.38;92078.22;6242016;22;20039;-76
2021/12/01 07:21:54;;;;;;;2.65;1.55;;;;;;;9.01;40.62;92084.13;6240996;23;20007;-76
2021/12/01 07:24:20;;;;;;;2.17;1.30;;;;;;;10.07;38.74;92077.25;6242706;23;20039;-76
2021/12/01 07:26:46;;;;;;;2.80;1.40;;;;;;;11.16;38.15;92083.25;6265955;22;20423;-76
2021/12/01 07:29:12;;;;;;;2.65;1.52;;;;;;;12.25;36.08;92074.97;6240919;23;20008;-75
2021/12/01 07:31:38;;;;;;;2.78;1.48;;;;;;;13.36;34.25;92076.38;6242030;23;20031;-76
2021/12/01 07:34:04;;;;;;;6.28;1.38;;;;;;;14.25;32.99;92070.47;6239821;23;20023;-75
2021/12/01 07:36:29;;;;;;;2.22;1.23;;;;;;;15.01;31.56;92074.78;6241369;23;20024;-76
2021/12/01 07:38:57;;;;;;;6.85;1.50;;;;;;;16.02;30.02;92066.47;6240713;23;20447;-76
2021/12/01 07:41:23;;;;;;;3.20;1.30;;;;;;;16.97;27.61;92061.00;6238954;23;20004;-76
2021/12/01 07:43:48;;;;;;;4.20;1.50;;;;;;;17.45;27.48;92063.78;6239703;23;20100;-76
2021/12/01 07:46:15;;;;;;;3.13;1.48;;;;;;;18.36;25.85;92059.59;6241889;23;20000;-76
2021/12/01 07:48:41;;;;;;;4.10;1.50;;;;;;;18.82;24.78;92057.19;6241793;23;20008;-76
2021/12/01 07:51:06;;;;;;;2.88;1.50;;;;;;;19.27;24.79;92061.91;6241873;23;20494;-76
2021/12/01 07:53:33;;;;;;;2.90;1.50;;;;;;;20.18;23.96;92057.03;6240640;23;20085;-77
2021/12/01 07:55:58;;;;;;;4.15;1.48;;;;;;;20.40;22.81;92055.50;6242399;23;20065;-78
2021/12/01 07:58:25;;;;;;;3.20;1.60;;;;;;;19.95;22.93;92057.06;6242602;23;20066;-77
2021/12/01 08:00:50;;;;;;;4.10;1.48;;;;;;;20.02;23.18;92057.19;6242054;23;20015;-77
2021/12/01 08:03:16;;;;;;;5.32;1.60;;;;;;;19.80;21.94;92063.25;6244097;22;20458;-77
2021/12/01 08:05:41;;;;;;;5.00;1.65;;;;;;;19.18;22.20;92061.31;6242107;23;20004;-77
2021/12/01 08:08:08;;;;;;;2.70;1.33;;;;;;;16.50;25.04;92063.38;6240864;23;20050;-77
2021/12/01 08:10:33;;;;;;;6.60;2.78;;;;;;;18.54;24.14;92060.75;6215642;23;20000;-77
2021/12/01 08:13:00;;;;;;;6.07;1.88;;;;;;;20.01;21.62;92060.19;6241914;23;20376;-77
2021/12/01 08:15:27;;;;;;;3.17;1.35;;;;;;;21.25;20.85;92055.09;6240440;23;20000;-76
2021/12/01 08:17:53;;;;;;;3.42;1.60;;;;;;;21.65;19.48;92050.25;6242347;23;20487;-75
2021/12/01 08:20:20;;;;;;;2.88;1.50;;;;;;;22.91;19.76;92042.09;6242598;23;20081;-75
2021/12/01 08:22:46;;;;;;;3.67;1.77;;;;;;;20.76;19.92;92048.03;6240816;23;20012;-76
2021/12/01 08:25:12;;;;;;;5.00;1.98;;;;;;;20.82;19.94;92054.56;6241484;23;20012;-75
2021/12/01 08:27:37;;;;;;;2.40;1.40;;;;;;;21.74;19.45;92046.13;6241687;23;20038;-78
2021/12/01 08:30:05;;;;;;;3.70;1.30;;;;;;;20.06;20.09;92046.59;6245364;23;20004;-78
2021/12/01 08:32:30;;;;;;;3.22;1.50;;;;;;;20.24;20.87;92046.88;6243033;23;20371;-77
2021/12/01 08:34:56;;;;;;;4.45;1.63;;;;;;;19.18;22.23;92048.06;6242958;23;20012;-77
2021/12/01 08:37:22;;;;;;;2.47;1.23;;;;;;;19.07;22.51;92045.22;6240846;23;20351;-76
2021/12/01 08:39:48;;;;;;;6.10;1.42;;;;;;;18.75;22.96;92044.50;6241577;23;20565;-77
2021/12/01 08:42:16;;;;;;;3.30;1.38;;;;;;;17.19;25.22;92046.47;6242238;23;20348;-77
2021/12/01 08:44:47;;;;;;;3.90;1.33;;;;;;;16.36;26.57;92043.38;6241571;23;20182;-77
2021/12/01 08:47:16;;;;;;;4.20;1.60;;;;;;;14.29;29.42;92048.44;6242520;23;20012;-76
2021/12/01 08:49:42;;;;;;;3.90;1.42;;;;;;;14.34;30.85;92050.13;6241102;23;20431;-76
2021/12/01 08:52:09;;;;;;;4.05;1.50;;;;;;;13.64;31.83;92047.81;6267080;22;20020;-77
2021/12/01 08:54:35;;;;;;;3.42;1.25;;;;;;;12.24;33.55;92044.53;6216446;23;20014;-76
2021/12/01 08:57:01;;;;;;;3.80;1.33;;;;;;;10.70;37.07;92044.28;6243850;23;20020;-76
2021/12/01 08:59:26;;;;;;;6.78;1.42;;;;;;;10.46;40.27;92040.09;6243485;23;20000;-76
2021/12/01 09:01:52;;;;;;;4.38;1.80;;;;;;;10.00;42.69;92043.66;6244432;23;20436;-76
2021/12/01 09:04:18;;;;;;;5.65;1.55;;;;;;;9.68;42.58;92049.75;6245820;23;20083;-78
2021/12/01 09:06:44;;;;;;;3.40;1.50;;;;;;;8.88;44.09;92044.63;6242958;23;20019;-77
2021/12/01 09:09:17;;;;;;;4.85;1.80;;;;;;;8.90;46.05;92045.13;6244048;23;20428;-78
2021/12/01 09:11:43;;;;;;;5.65;1.85;;;;;;;8.97;44.10;92042.13;6241819;23;20074;-76
2021/12/01 09:14:09;;;;;;;4.50;1.38;;;;;;;8.49;46.84;92045.75;6241416;23;20008;-78
2021/12/01 09:16:35;;;;;;;2.50;1.10;;;;;;;8.09;48.05;92050.44;6242785;23;20016;-78
2021/12/01 09:19:01;;;;;;;5.45;1.38;;;;;;;8.13;47.02;92051.44;6244815;23;20450;-76
2021/12/01 09:21:26;;;;;;;4.82;1.45;;;;;;;7.70;48.64;92046.22;6246828;23;20023;-78
2021/12/01 09:23:52;;;;;;;3.33;1.48;;;;;;;7.91;48.36;92049.34;6249307;23;20418;-77
2021/12/01 09:26:18;;;;;;;4.65;1.50;;;;;;;7.73;50.10;92050.09;6250137;23;20039;-77
2021/12/01 09:28:44;;;;;;;6.30;1.40;;;;;;;7.78;51.06;92050.03;6248817;23;19996;-78
2021/12/01 09:31:09;;;;;;;4.25;1.50;;;;;;;7.96;50.62;92048.50;6227387;23;20026;-78
2021/12/01 09:33:35;;;;;;;5.15;1.70;;;;;;;8.37;49.17;92050.56;6203620;23;20107;-78
2021/12/01 09:36:02;;;;;;;2.97;1.20;;;;;;;8.11;50.30;92040.50;6223560;23;20391;-79
2021/12/01 09:38:28;;;;;;;2.65;1.13;;;;;;;7.96;50.04;92037.31;6251652;23;20008;-78
2021/12/01 09:40:57;;;;;;;3.28;1.33;;;;;;;7.87;51.26;92032.72;6251218;23;20050;-78
2021/12/01 09:43:26;;;;;;;2.88;1.40;;;;;;;8.29;49.90;92032.97;6250387;23;19991;-78
2021/12/01 09:45:54;;;;;;;4.70;1.50;;;;;;;7.89;51.02;92030.59;6247991;23;20056;-77
2021/12/01 09:48:20;;;;;;;2.40;1.38;;;;;;;7.56;50.65;92037.50;6223459;23;20392;-78
2021/12/01 09:50:46;;;;;;;3.47;1.30;;;;;;;6.80;54.20;92037.22;6248327;23;20372;-77
2021/12/01 09:53:12;;;;;;;3.33;1.25;;;;;;;6.67;55.92;92041.22;6251217;23;20482;-78
2021/12/01 09:55:40;;;;;;;5.05;1.67;;;;;;;6.38;56.44;92048.97;6224346;23;20019;-77
2021/12/01 09:58:05;;;;;;;22.15;8.07;;;;;;;6.31;58.56;92045.91;6225599;23;20008;-78
2021/12/01 10:00:33;;;;;;;7.03;2.40;;;;;;;6.46;58.26;92043.22;6225441;23;20073;-78
2021/12/01 10:02:59;;;;;;;4.35;1.60;;;;;;;6.29;58.47;92040.19;6251538;23;19996;-78
2021/12/01 10:05:51;;;;;;;3.92;1.40;;;;;;;5.98;58.97;92040.38;6252814;23;20382;-77
2021/12/01 10:08:28;;;;;;;4.28;1.65;;;;;;;5.67;61.14;92044.91;6225383;23;20054;-78
2021/12/01 10:10:55;;;;;;;6.15;1.50;;;;;;;5.46;62.25;92031.22;6222858;23;20008;-78
2021/12/01 10:13:42;;;;;;;7.25;1.75;;;;;;;5.55;62.19;92029.63;6251673;23;19996;-78
2021/12/01 10:16:14;;;;;;;6.00;1.70;;;;;;;5.43;62.13;92029.19;6252535;23;20012;-78
2021/12/01 10:18:55;;;;;;;6.88;1.50;;;;;;;5.22;63.89;92029.25;6226075;23;20012;-78
2021/12/01 10:21:33;;;;;;;7.05;1.75;;;;;;;5.26;64.59;92026.09;6224851;23;20019;-78
2021/12/01 10:24:10;;;;;;;3.95;1.10;;;;;;;5.34;64.15;92022.97;6249289;23;20072;-78
2021/12/01 10:26:43;;;;;;;4.25;1.40;;;;;;;5.36;63.85;92018.31;6249501;23;20015;-79
2021/12/01 10:29:16;;;;;;;7.30;1.70;;;;;;;5.12;65.97;92012.91;6252397;23;20008;-79
2021/12/01 10:31:52;;;;;;;3.28;1.23;;;;;;;5.03;66.89;92009.31;6250301;23;20007;-79
2021/12/01 10:34:30;;;;;;;1.70;1.02;;;;;;;5.14;66.58;92008.25;6253302;23;20447;-80
2021/12/01 10:37:12;;;;;;;3.65;1.35;;;;;;;5.01;66.80;91999.97;6256103;23;20039;-80
2021/12/01 10:39:43;;;;;;;2.33;1.38;;;;;;;5.03;66.55;91999.72;6231393;23;20050;-79
2021/12/01 10:42:14;;;;;;;3.38;1.45;;;;;;;5.01;66.56;91996.59;6230745;23;20008;-78
2021/12/01 10:44:58;;;;;;;6.65;1.70;;;;;;;5.06;65.82;91985.44;6257272;23;20011;-78
2021/12/01 10:47:24;;;;;;;2.10;1.33;;;;;;;5.14;65.87;91980.47;6257749;23;20023;-79
2021/12/01 10:49:50;;;;;;;2.67;1.42;;;;;;;5.18;65.31;91981.50;6258779;23;19996;-79
2021/12/01 10:52:42;;;;;;;3.17;1.67;;;;;;;5.18;64.29;91984.09;6227380;23;20015;-78
2021/12/01 10:55:09;;;;;;;7.43;1.60;;;;;;;5.17;64.26;91977.34;6227305;23;20012;-79
2021/12/01 10:57:44;;;;;;;3.50;1.70;;;;;;;5.13;64.04;91968.53;6229740;23;20004;-79
2021/12/01 11:00:22;;;;;;;2.85;1.23;;;;;;;5.15;64.18;91969.03;6228368;23;20008;-78
2021/12/01 11:02:50;;;;;;;4.80;1.50;;;;;;;5.12;64.87;91959.19;6256536;23;20288;-78
2021/12/01 11:05:31;;;;;;;3.15;1.33;;;;;;;5.10;65.21;91950.91;6204036;23;19996;-79
2021/12/01 11:08:08;;;;;;;8.45;1.42;;;;;;;5.09;65.46;91945.97;6253457;23;20008;-79
2021/12/01 11:10:34;;;;;;;5.25;1.58;;;;;;;5.09;65.48;91938.19;6253031;23;20016;-80
2021/12/01 11:13:04;;;;;;;5.43;3.05;;;;;;;5.07;65.70;91935.09;6253438;23;20000;-78
2021/12/01 11:15:36;;;;;;;10.32;2.45;;;;;;;5.08;65.20;91927.03;6255396;23;20047;-79
2021/12/01 11:18:04;;;;;;;14.23;4.72;;;;;;;5.11;66.02;91921.34;6256104;23;20361;-80
2021/12/01 11:20:41;;;;;;;14.60;4.95;;;;;;;5.12;66.31;91922.88;6254592;23;20011;-80
2021/12/01 11:23:23;;;;;;;12.45;5.32;;;;;;;5.15;65.81;91914.56;6254091;23;20015;-81
2021/12/01 11:26:04;;;;;;;17.02;5.93;;;;;;;5.15;66.56;91911.97;6255040;23;20035;-80
2021/12/01 11:28:32;;;;;;;11.32;4.40;;;;;;;5.17;66.33;91907.28;6263483;23;20360;-81
2021/12/01 11:31:01;;;;;;;16.58;4.53;;;;;;;5.20;65.79;91905.97;6261561;23;20083;-79
2021/12/01 11:33:29;;;;;;;9.75;4.18;;;;;;;5.13;66.55;91902.91;6262338;23;20016;-79
2021/12/01 11:36:07;;;;;;;5.80;2.50;;;;;;;5.10;67.25;91903.44;6235815;23;20016;-79
2021/12/01 11:38:34;;;;;;;5.55;1.98;;;;;;;5.12;67.39;91904.72;6261535;23;20015;-80
2021/12/01 11:41:01;;;;;;;11.85;2.63;;;;;;;5.14;68.35;91900.03;6261748;23;20007;-79
2021/12/01 11:43:29;;;;;;;8.68;3.95;;;;;;;5.12;69.22;91891.75;6262619;23;20402;-79
2021/12/01 11:45:56;;;;;;;7.15;2.70;;;;;;;5.07;70.34;91884.00;6261508;22;20412;-79
2021/12/01 11:48:32;;;;;;;6.88;2.08;;;;;;;5.07;71.46;91883.22;6259412;23;20083;-79
2021/12/01 11:51:24;;;;;;;5.57;1.90;;;;;;;5.08;71.59;91875.16;6254099;23;20015;-79
2021/12/01 11:54:09;;;;;;;6.20;2.90;;;;;;;5.04;72.65;91873.34;6225189;23;20514;-78
2021/12/01 11:56:38;;;;;;;9.82;2.75;;;;;;;4.94;74.33;91871.59;6222838;23;20015;-77
2021/12/01 11:59:16;;;;;;;6.55;2.60;;;;;;;4.90;74.33;91863.56;6224352;23;20026;-78
2021/12/01 12:01:47;;;;;;;5.63;2.60;;;;;;;4.88;74.62;91854.50;6228352;23;20012;-79
2021/12/01 12:04:14;;;;;;;6.78;3.20;;;;;;;4.86;75.83;91864.34;6254192;23;20347;-78
2021/12/01 12:07:01;;;;;;;5.35;2.88;;;;;;;4.82;75.97;91856.34;6252764;23;20031;-79
2021/12/01 12:09:27;;;;;;;7.18;2.08;;;;;;;4.70;76.50;91856.63;6227954;23;20403;-79
2021/12/01 12:12:10;;;;;;;8.23;2.05;;;;;;;4.61;76.19;91855.63;6253212;23;20015;-79
2021/12/01 12:14:49;;;;;;;6.40;1.90;;;;;;;4.62;76.47;91841.63;6227340;23;20034;-79
2021/12/01 12:17:32;;;;;;;7.82;1.95;;;;;;;4.66;76.33;91829.72;6228119;23;20356;-78
2021/12/01 12:20:08;;;;;;;;;;;;;;;4.73;76.75;91827.59;6229105;23;20166;-79
2021/12/01 12:22:37;;;;;;;3.75;1.60;;;;;;;4.75;76.94;91822.13;6253922;23;19951;-77
2021/12/01 12:25:10;;;;;;;5.03;2.03;;;;;;;4.74;78.06;91818.75;6254965;23;19996;-78
2021/12/01 12:27:45;;;;;;;4.03;1.67;;;;;;;4.72;78.76;91813.06;6254438;23;20004;-78
2021/12/01 12:30:29;;;;;;;5.95;2.17;;;;;;;4.70;80.88;91812.56;6228210;23;20004;-78
2021/12/01 12:33:29;;;;;;;6.35;2.03;;;;;;;4.76;80.66;91814.09;6254012;23;20016;-78
2021/12/01 12:35:58;;;;;;;6.10;1.90;;;;;;;4.75;80.68;91815.16;6254209;23;20015;-78
2021/12/01 12:38:25;;;;;;;4.28;1.80;;;;;;;4.74;80.59;91803.22;6255655;23;20454;-78
2021/12/01 12:41:07;;;;;;;2.90;1.70;;;;;;;4.72;80.19;91801.94;6251571;23;20123;-78
2021/12/01 12:43:34;;;;;;;4.13;2.05;;;;;;;4.68;80.25;91788.72;6251569;23;20015;-78
2021/12/01 12:46:18;;;;;;;4.60;1.80;;;;;;;4.61;80.34;91798.59;6224063;23;20095;-77
2021/12/01 12:48:48;;;;;;;6.13;1.90;;;;;;;4.56;81.01;91793.44;6254241;23;20012;-78
2021/12/01 12:51:16;;;;;;;6.82;1.92;;;;;;;4.51;81.36;91789.06;6226691;23;20403;-78
2021/12/01 12:54:04;;;;;;;7.30;2.50;;;;;;;4.50;81.59;91778.94;6253924;23;20000;-78
2021/12/01 12:56:32;;;;;;;14.48;4.68;;;;;;;4.52;81.71;91780.22;6230127;23;20026;-78
2021/12/01 12:59:18;;;;;;;17.02;6.32;;;;;;;4.46;82.86;91785.69;6227364;23;20027;-79
2021/12/01 13:01:45;;;;;;;6.88;3.10;;;;;;;4.41;83.34;91780.53;6227294;23;20084;-78
2021/12/01 13:04:52;;;;;;;8.43;2.45;;;;;;;4.41;83.04;91772.75;6255912;23;20339;-78
2021/12/01 13:07:41;;;;;;;10.77;2.90;;;;;;;4.37;83.08;91760.34;6228771;23;20012;-78
2021/12/01 13:10:21;;;;;;;5.28;2.97;;;;;;;4.34;83.57;91758.25;6254583;23;20401;-78
2021/12/01 13:12:49;;;;;;;9.23;2.63;;;;;;;4.32;83.50;91757.78;6255039;23;20023;-78
2021/12/01 13:15:29;;;;;;;7.30;2.55;;;;;;;4.32;83.60;91747.41;6253589;23;20004;-78
2021/12/01 13:18:04;;;;;;;5.82;2.25;;;;;;;4.33;83.88;91746.38;6226679;23;20012;-78
2021/12/01 13:20:38;;;;;;;4.55;1.80;;;;;;;4.30;83.70;91739.13;6252802;23;20016;-78
2021/12/01 13:23:22;;;;;;;8.40;2.20;;;;;;;4.28;83.44;91748.97;6253162;23;20035;-78
2021/12/01 13:25:56;;;;;;;4.78;2.45;;;;;;;4.27;84.02;91742.22;6255232;23;20097;-78
2021/12/01 13:28:27;;;;;;;14.23;4.60;;;;;;;4.20;84.15;91735.78;6251136;23;20427;-78
2021/12/01 13:31:02;;;;;;;8.63;3.35;;;;;;;4.13;84.48;91741.25;6248475;23;20008;-78
2021/12/01 13:33:28;;;;;;;5.38;2.22;;;;;;;4.07;85.36;91743.06;6225112;23;20054;-78
2021/12/01 13:35:55;;;;;;;6.47;2.58;;;;;;;4.04;85.17;91740.25;6249464;23;20016;-78
2021/12/01 13:38:35;;;;;;;7.88;2.80;;;;;;;3.99;85.12;91741.03;6251435;23;20012;-77
2021/12/01 13:41:13;;;;;;;9.35;2.95;;;;;;;3.96;85.48;91726.81;6253574;23;20019;-78
2021/12/01 13:43:41;;;;;;;6.15;2.72;;;;;;;3.96;85.45;91715.66;6252854;23;20062;-78
2021/12/01 13:46:07;;;;;;;4.85;2.38;;;;;;;3.96;85.62;91715.66;6251921;23;20084;-78
2021/12/01 13:48:33;;;;;;;6.63;2.50;;;;;;;3.93;85.79;91719.56;6244877;23;20086;-77
2021/12/01 13:51:10;;;;;;;8.90;2.70;;;;;;;3.91;85.60;91711.28;6245837;23;20012;-78
2021/12/01 13:53:37;;;;;;;9.20;3.10;;;;;;;3.90;85.84;91706.38;6247954;23;20079;-77
2021/12/01 13:56:09;;;;;;;15.95;3.45;;;;;;;3.90;85.75;91711.56;6245031;23;20000;-77
2021/12/01 13:58:34;;;;;;;11.13;4.33;;;;;;;3.88;86.01;91704.03;6247356;23;20009;-78
2021/12/01 14:01:03;;;;;;;7.30;3.95;;;;;;;3.85;85.93;91706.38;6220252;23;20016;-77
2021/12/01 14:03:30;;;;;;;12.10;4.78;;;;;;;3.82;86.08;91705.09;6197005;23;20008;-76
2021/12/01 14:05:56;;;;;;;11.90;5.18;;;;;;;3.80;86.25;91694.22;6245956;23;20016;-78
2021/12/01 14:08:39;;;;;;;12.63;4.97;;;;;;;3.79;87.38;91697.84;6218601;23;20007;-78
2021/12/01 14:11:27;;;;;;;10.95;2.60;;;;;;;3.73;90.84;91696.31;6248134;23;20016;-78
2021/12/01 14:14:00;;;;;;;13.23;3.78;;;;;;;3.46;93.15;91697.41;6245669;23;20436;-77
2021/12/01 14:16:28;;;;;;;10.75;3.42;;;;;;;3.41;93.60;91691.47;6218510;23;20012;-77
2021/12/01 14:18:54;;;;;;;8.43;3.17;;;;;;;3.39;93.09;91689.13;6246895;23;20339;-78
2021/12/01 14:21:23;;;;;;;25.17;3.38;;;;;;;3.34;93.84;91683.97;6219086;23;20083;-77
2021/12/01 14:23:51;;;;;;;15.70;3.08;;;;;;;3.30;93.93;91683.72;6197571;23;20026;-78
2021/12/01 14:26:26;;;;;;;7.95;3.60;;;;;;;3.26;93.94;91690.44;6248092;23;20019;-78
2021/12/01 14:29:05;;;;;;;7.97;3.20;;;;;;;3.27;93.74;91686.81;6223250;23;20096;-78
2021/12/01 14:31:32;;;;;;;8.35;3.03;;;;;;;3.31;92.48;91689.66;6247992;23;20062;-77
2021/12/01 14:34:01;;;;;;;6.15;3.28;;;;;;;3.31;92.33;91682.69;6221147;23;20030;-77
2021/12/01 14:36:27;;;;;;;10.60;4.07;;;;;;;3.35;91.76;91685.50;6247853;23;20036;-78
2021/12/01 14:38:53;;;;;;;6.35;3.28;;;;;;;3.35;91.46;91680.34;6222673;23;20012;-78
2021/12/01 14:41:19;;;;;;;6.90;3.35;;;;;;;3.34;91.51;91683.97;6222025;23;20016;-78
2021/12/01 14:43:44;;;;;;;10.02;3.03;;;;;;;3.34;91.27;91681.38;6222197;23;20012;-77
2021/12/01 14:46:15;;;;;;;12.55;2.67;;;;;;;3.31;91.03;91681.88;6199630;23;20011;-78
2021/12/01 14:48:40;;;;;;;4.95;2.42;;;;;;;3.32;90.96;91680.88;6221865;23;20344;-78
2021/12/01 14:51:06;;;;;;;7.15;2.90;;;;;;;3.32;90.79;91675.69;6200158;23;20107;-78
2021/12/01 14:53:37;;;;;;;8.05;4.75;;;;;;;3.32;90.82;91665.34;6250853;23;20360;-78
2021/12/01 14:56:05;;;;;;;7.38;3.83;;;;;;;3.28;90.58;91669.50;6221807;23;20065;-77
2021/12/01 14:58:31;;;;;;;6.55;3.00;;;;;;;3.24;91.21;91665.88;6249753;23;20000;-78
2021/12/01 15:01:01;;;;;;;10.13;3.60;;;;;;;3.20;91.59;91664.84;6250581;23;20095;-78
2021/12/01 15:03:40;;;;;;;6.13;3.55;;;;;;;3.15;91.23;91655.25;6224069;23;20007;-78
2021/12/01 15:06:06;;;;;;;6.45;3.20;;;;;;;3.09;91.30;91654.50;6220406;23;20442;-78
2021/12/01 15:08:37;;;;;;;4.35;2.72;;;;;;;3.05;91.45;91656.06;6252930;23;20023;-79
2021/12/01 15:11:11;;;;;;;6.32;2.80;;;;;;;3.00;91.59;91648.31;6246852;23;20447;-78
2021/12/01 15:13:40;;;;;;;4.55;2.70;;;;;;;2.99;91.37;91644.16;6252949;23;20023;-78
2021/12/01 15:16:29;;;;;;;5.07;2.72;;;;;;;2.96;91.30;91634.34;6252130;23;20016;-78
2021/12/01 15:19:00;;;;;;;5.95;3.05;;;;;;;2.94;91.28;91628.66;6247509;23;20012;-77
2021/12/01 15:21:27;;;;;;;5.80;2.60;;;;;;;2.91;91.28;91624.03;6246603;23;20008;-77
2021/12/01 15:24:03;;;;;;;4.88;1.80;;;;;;;2.86;91.40;91626.59;6244730;23;20004;-77
2021/12/01 15:26:42;;;;;;;6.65;2.88;;;;;;;2.87;91.66;91625.56;6243486;23;20332;-77
2021/12/01 15:29:13;;;;;;;6.40;2.50;;;;;;;2.87;91.14;91622.97;6252551;23;20019;-79
2021/12/01 15:32:07;;;;;;;6.82;2.78;;;;;;;2.83;90.96;91617.53;6251546;23;20063;-77
2021/12/01 15:34:33;;;;;;;107.78;41.33;;;;;;;2.80;91.75;91612.13;6237801;23;20034;-78
2021/12/01 15:36:59;;;;;;;42.60;17.98;;;;;;;2.78;91.38;91614.19;6226025;23;20016;-79
2021/12/01 15:39:26;;;;;;;14.70;6.28;;;;;;;2.75;91.20;91607.75;6223166;23;20020;-78
2021/12/01 15:41:58;;;;;;;7.65;4.03;;;;;;;2.73;91.50;91606.47;6246430;23;20008;-79
2021/12/01 15:44:24;;;;;;;9.60;2.97;;;;;;;2.71;91.86;91604.13;6220255;23;20020;-78
2021/12/01 15:46:50;;;;;;;4.78;2.05;;;;;;;2.70;91.89;91605.16;6218519;23;20053;-77
2021/12/01 15:49:17;;;;;;;6.25;2.10;;;;;;;2.68;91.71;91604.66;6214541;23;20012;-77
2021/12/01 15:51:44;;;;;;;3.92;1.85;;;;;;;2.68;91.72;91602.06;6216035;23;20044;-77
2021/12/01 15:54:10;;;;;;;3.83;1.98;;;;;;;2.63;92.03;91597.66;6246745;23;20453;-78
2021/12/01 15:56:39;;;;;;;4.57;1.90;;;;;;;2.64;92.31;91594.03;6224674;23;20329;-77
2021/12/01 15:59:05;;;;;;;5.13;2.33;;;;;;;2.64;92.52;91588.13;6226362;23;20031;-78
2021/12/01 16:01:31;;;;;;;6.57;3.45;;;;;;;2.60;92.63;91594.81;6226019;23;20437;-78
2021/12/01 16:03:57;;;;;;;7.07;2.85;;;;;;;2.60;92.59;91587.84;6252649;23;20083;-78
2021/12/01 16:06:23;;;;;;;3.92;2.00;;;;;;;2.58;92.52;91592.50;6247959;23;20117;-77
2021/12/01 16:08:49;;;;;;;5.55;2.50;;;;;;;2.58;92.88;91586.56;6220827;23;20034;-77
2021/12/01 16:11:16;;;;;;;9.43;4.55;;;;;;;2.57;92.33;91590.97;6219857;23;20459;-79
2021/12/01 16:13:47;;;;;;;5.90;3.10;;;;;;;2.59;91.95;91586.31;6221633;23;20039;-78
2021/12/01 16:16:13;;;;;;;4.85;2.50;;;;;;;2.57;91.83;91583.19;6247727;23;20012;-78
2021/12/01 16:18:39;;;;;;;7.45;3.90;;;;;;;2.57;91.76;91587.56;6247452;23;20044;-78
2021/12/01 16:21:04;;;;;;;6.47;2.95;;;;;;;2.57;91.56;91580.63;6248635;23;20012;-78
2021/12/01 16:23:32;;;;;;;6.85;3.65;;;;;;;2.55;91.63;91577.53;6246650;23;20435;-78